»·PEaware :: N9907W KSBP-KSBA

N9907W :: KSBP-KSBA

FLIGHT INFORMATION

Flight Status: Arrived
Operator: Privately registered:
United States
More flights under this callsign
Pilot: Remy S. (22786)
Aircraft: PIPER PA-28 CHEROKEE ARCHER
(P28A)
More flights by this aircraft type
Origin: KSBP San Luis Co Regl
United States
Destination: KSBA Santa Barbara Mun
United States
More flights between these airports :: More routes between these airports
Route: +
File this flight plan on PilotEdge
Remarks: FFS
Altitude:
(Current/Filed)
0ft
Speed:
(Current/Filed)
0kts
Departed: 06-Feb-19 11:56 AM
Arrived: 06-Feb-19 12:43 PM
Distance/Time
Traveled:
62nm/0:47
Distance/Time
To Go:
Arrived

Flight Plot

Page will automatically refresh every two minutes.


Map Options




Map Legend


Flown Route
Filed Route
Departure Airport
Arrival Airport
Navaid (VOR, NDB)
Fix

Horizontal Profiles

Position Reports

Time Latitude Longitude Heading Altitude Ground
Speed
06-Feb-19 11:45 35.238064 -120.639958 113 214ft 0kts
06-Feb-19 11:46 35.238064 -120.639958 113 214ft 0kts
06-Feb-19 11:47 35.238064 -120.639958 113 214ft 0kts
06-Feb-19 11:48 35.237337 -120.639078 120 214ft 7kts
06-Feb-19 11:49 35.236815 -120.638102 125 214ft 4kts
06-Feb-19 11:50 35.235481 -120.635782 118 214ft 25kts
06-Feb-19 11:51 35.233564 -120.632516 131 214ft 0kts
06-Feb-19 11:52 35.233169 -120.632363 208 214ft 0kts
06-Feb-19 11:53 35.233123 -120.632395 210 214ft 0kts
06-Feb-19 11:54 35.232839 -120.633047 289 214ft 21kts
06-Feb-19 11:55 35.243088 -120.652662 299 540ft 84kts
06-Feb-19 11:56 35.237768 -120.677085 211 1207ft 79kts
06-Feb-19 11:57 35.219985 -120.680355 118 1846ft 70kts
06-Feb-19 11:58 35.208323 -120.660618 126 2474ft 69kts
06-Feb-19 11:59 35.196495 -120.641545 126 3069ft 68kts
06-Feb-19 12:00 35.181107 -120.627902 150 3632ft 67kts
06-Feb-19 12:01 35.164191 -120.617365 150 4164ft 66kts
06-Feb-19 12:02 35.148939 -120.604601 139 4664ft 65kts
06-Feb-19 12:03 35.135598 -120.589104 139 5133ft 65kts
06-Feb-19 12:04 35.122292 -120.573577 145 5574ft 65kts
06-Feb-19 12:05 35.101620 -120.555997 149 5556ft 100kts
06-Feb-19 12:06 35.076490 -120.538614 154 5557ft 102kts
06-Feb-19 12:07 35.050528 -120.522092 154 5558ft 103kts
06-Feb-19 12:08 35.024419 -120.505269 154 5560ft 104kts
06-Feb-19 12:09 34.998719 -120.487013 154 5558ft 104kts
06-Feb-19 12:10 34.973350 -120.467963 146 5561ft 106kts
06-Feb-19 12:11 34.949023 -120.446192 149 5560ft 106kts
06-Feb-19 12:12 34.923645 -120.426204 150 5560ft 106kts
06-Feb-19 12:13 34.898350 -120.406208 150 5561ft 103kts
06-Feb-19 12:14 34.873758 -120.386666 150 5565ft 105kts
06-Feb-19 12:15 34.848631 -120.366615 150 5565ft 105kts
06-Feb-19 12:16 34.823481 -120.346463 150 5566ft 105kts
06-Feb-19 12:17 34.798124 -120.326154 150 5566ft 105kts
06-Feb-19 12:18 34.773043 -120.306116 150 5566ft 104kts
06-Feb-19 12:19 34.747986 -120.286301 149 5565ft 103kts
06-Feb-19 12:20 34.726275 -120.263454 165 5566ft 101kts
06-Feb-19 12:21 34.701319 -120.245487 155 5564ft 101kts
06-Feb-19 12:22 34.675248 -120.230009 155 5564ft 101kts
06-Feb-19 12:23 34.653147 -120.209317 121 5562ft 106kts
06-Feb-19 12:24 34.635578 -120.180096 132 5564ft 104kts
06-Feb-19 12:25 34.613298 -120.162486 150 5557ft 91kts
06-Feb-19 12:26 34.589771 -120.141298 146 4639ft 116kts
06-Feb-19 12:27 34.564240 -120.120282 145 3534ft 92kts
06-Feb-19 12:28 34.541294 -120.102261 146 3573ft 102kts
06-Feb-19 12:29 34.517578 -120.083653 146 3573ft 93kts
06-Feb-19 12:30 34.495604 -120.066525 145 3577ft 89kts
06-Feb-19 12:31 34.471699 -120.047968 145 3289ft 106kts
06-Feb-19 12:32 34.447329 -120.029308 145 2760ft 102kts
06-Feb-19 12:33 34.422273 -120.010304 145 2089ft 100kts
06-Feb-19 12:34 34.398241 -119.992013 145 1287ft 99kts
06-Feb-19 12:35 34.382121 -119.970294 70 1150ft 96kts
06-Feb-19 12:36 34.384215 -119.938861 90 1100ft 79kts
06-Feb-19 12:37 34.384399 -119.911839 90 885ft 78kts
06-Feb-19 12:38 34.384581 -119.884625 90 674ft 77kts
06-Feb-19 12:39 34.384773 -119.858571 90 550ft 73kts
06-Feb-19 12:40 34.393832 -119.835588 28 747ft 85kts
06-Feb-19 12:41 34.415628 -119.836968 348 110ft 76kts
06-Feb-19 12:42 34.426104 -119.840223 349 12ft 18kts
06-Feb-19 12:43 34.430301 -119.840737 57 12ft 17kts
06-Feb-19 12:44 34.431353 -119.839220 145 12ft 0kts
06-Feb-19 12:45 34.431353 -119.839220 145 12ft 0kts
06-Feb-19 12:46 34.431353 -119.839220 145 12ft 0kts
06-Feb-19 12:47 34.431353 -119.839220 145 12ft 0kts
06-Feb-19 12:48 34.431353 -119.839220 145 12ft 0kts
06-Feb-19 12:49 34.431353 -119.839220 145 12ft 0kts
06-Feb-19 12:50 34.431353 -119.839220 145 12ft 0kts
06-Feb-19 12:51 34.431353 -119.839220 145 12ft 0kts
06-Feb-19 12:52 34.431353 -119.839220 145 12ft 0kts
06-Feb-19 12:53 34.431353 -119.839220 145 12ft 0kts
06-Feb-19 12:54 34.431353 -119.839220 145 12ft 0kts
06-Feb-19 12:55 34.431353 -119.839220 145 12ft 0kts
06-Feb-19 12:56 34.431353 -119.839220 145 12ft 0kts

Navigation Log

Ident Type
Flight plan parsing failed, navigation log unavailable